Time;durP1;ratioP1;P1;durP2;ratioP2;P2;SDS_P1;SDS_P2;PMS_P1;PMS_P2;Temp;Humidity;BMP_temperature;BMP_pressure;BME280_temperature;BME280_humidity;BME280_pressure;Samples;Min_cycle;Max_cycle;Signal;HPM_P1;HPM_P2
2023/04/27 00:00:01;;;;;;;1.17;0.98;;;;;;;10.92;36.77;99717.16;4488050;31;31994;-60
2023/04/27 00:02:36;;;;;;;0.73;0.73;;;;;;;10.84;37.22;99716.88;4492931;31;37449;-60
2023/04/27 00:05:04;;;;;;;2.85;1.70;;;;;;;10.83;37.35;99720.53;4482621;31;34962;-60
2023/04/27 00:07:32;;;;;;;0.98;0.93;;;;;;;10.91;37.08;99715.44;4485158;31;33504;-59
2023/04/27 00:10:00;;;;;;;1.85;1.35;;;;;;;11.05;36.89;99710.84;4488610;31;34604;-60
2023/04/27 00:12:27;;;;;;;2.55;0.95;;;;;;;11.09;36.61;99707.81;4489328;31;33675;-60
2023/04/27 00:14:55;;;;;;;1.02;0.90;;;;;;;11.02;36.76;99716.44;4490920;31;34931;-60
2023/04/27 00:17:22;;;;;;;1.20;0.93;;;;;;;11.22;36.37;99725.63;4486840;31;33298;-60
2023/04/27 00:19:51;;;;;;;1.00;0.88;;;;;;;11.27;36.11;99718.03;4487201;31;32645;-60
2023/04/27 00:22:18;;;;;;;4.18;1.80;;;;;;;11.20;36.89;99723.03;4487082;31;33889;-59
2023/04/27 00:24:45;;;;;;;1.77;1.23;;;;;;;11.21;36.42;99719.41;4490979;31;33882;-60
2023/04/27 00:27:13;;;;;;;0.80;0.77;;;;;;;11.12;36.68;99715.59;4482105;31;33608;-60
2023/04/27 00:29:41;;;;;;;1.00;0.90;;;;;;;11.22;36.76;99722.94;4482232;31;36573;-59
2023/04/27 00:32:09;;;;;;;0.57;0.57;;;;;;;11.27;37.38;99718.94;4482983;31;32739;-61
2023/04/27 00:34:37;;;;;;;1.60;1.08;;;;;;;11.42;36.84;99720.38;4487265;31;34337;-60
2023/04/27 00:37:05;;;;;;;3.87;1.85;;;;;;;11.32;37.13;99716.72;4484046;31;33274;-60
2023/04/27 00:39:34;;;;;;;1.35;0.95;;;;;;;11.02;37.83;99713.75;4488692;31;32795;-59
2023/04/27 00:42:01;;;;;;;3.00;1.10;;;;;;;10.64;38.67;99715.72;4492014;31;34278;-60
2023/04/27 00:44:29;;;;;;;3.87;1.75;;;;;;;10.55;39.20;99721.75;4491883;31;33579;-60
2023/04/27 00:46:57;;;;;;;1.40;1.05;;;;;;;10.44;39.65;99721.72;4487828;31;34622;-59
2023/04/27 00:49:25;;;;;;;1.08;0.88;;;;;;;10.48;39.09;99716.00;4493164;31;35462;-59
2023/04/27 00:51:53;;;;;;;1.00;0.90;;;;;;;10.56;38.80;99723.47;4485847;31;34808;-60
2023/04/27 00:54:21;;;;;;;2.72;1.20;;;;;;;10.71;38.31;99708.06;4484341;31;35352;-60
2023/04/27 00:56:51;;;;;;;1.05;0.95;;;;;;;10.78;38.67;99714.66;4481536;31;32229;-60
2023/04/27 00:59:19;;;;;;;4.75;1.27;;;;;;;10.38;39.20;99715.00;4489842;31;33780;-60
2023/04/27 01:01:46;;;;;;;0.77;0.77;;;;;;;9.96;39.78;99709.13;4493011;31;33626;-60
2023/04/27 01:04:15;;;;;;;3.30;1.62;;;;;;;10.11;40.17;99714.31;4488453;31;35000;-60
2023/04/27 01:06:43;;;;;;;0.68;0.68;;;;;;;10.10;40.16;99718.81;4476665;31;33826;-59
2023/04/27 01:09:11;;;;;;;1.23;0.88;;;;;;;10.34;39.09;99715.34;4488065;31;33880;-60
2023/04/27 01:11:39;;;;;;;0.90;0.90;;;;;;;10.51;38.57;99714.09;4490831;31;33883;-59
2023/04/27 01:14:06;;;;;;;0.75;0.70;;;;;;;10.36;39.91;99706.22;4492418;31;35225;-60
2023/04/27 01:16:34;;;;;;;6.55;1.70;;;;;;;10.44;38.96;99713.69;4493806;31;34655;-59
2023/04/27 01:19:03;;;;;;;2.97;2.35;;;;;;;10.46;38.67;99712.63;4485799;31;33707;-59
2023/04/27 01:21:30;;;;;;;2.90;1.10;;;;;;;10.40;39.03;99718.41;4491020;31;34435;-60
2023/04/27 01:23:57;;;;;;;8.82;1.42;;;;;;;10.58;38.60;99720.66;4488283;31;33744;-59
2023/04/27 01:26:25;;;;;;;1.30;0.90;;;;;;;10.68;38.30;99719.00;4485934;31;34313;-59
2023/04/27 01:28:53;;;;;;;2.08;1.33;;;;;;;10.67;38.20;99723.50;4490937;31;34314;-59
2023/04/27 01:31:20;;;;;;;1.17;1.08;;;;;;;10.80;38.30;99731.47;4494205;31;34011;-60
2023/04/27 01:33:48;;;;;;;0.70;0.70;;;;;;;10.70;39.15;99731.31;4486598;31;34083;-59
2023/04/27 01:36:16;;;;;;;1.20;1.10;;;;;;;10.22;39.54;99725.09;4488912;31;33309;-60
2023/04/27 01:38:43;;;;;;;2.00;1.70;;;;;;;10.30;39.04;99729.91;4492946;31;32774;-59
2023/04/27 01:41:12;;;;;;;0.70;0.70;;;;;;;10.35;39.16;99730.41;4490605;31;34337;-59
2023/04/27 01:43:42;;;;;;;4.18;1.58;;;;;;;10.10;40.32;99740.19;4491855;31;33519;-61
2023/04/27 01:46:11;;;;;;;0.85;0.73;;;;;;;10.33;39.20;99738.53;4479975;31;33327;-60
2023/04/27 01:48:39;;;;;;;1.27;1.05;;;;;;;10.46;39.21;99743.84;4496266;31;34719;-60
2023/04/27 01:51:07;;;;;;;1.92;1.02;;;;;;;10.47;39.00;99741.06;4483573;31;35256;-60
2023/04/27 01:53:34;;;;;;;1.20;1.10;;;;;;;10.54;38.92;99738.78;4490432;31;34024;-60
2023/04/27 01:56:02;;;;;;;4.55;1.10;;;;;;;10.50;39.01;99734.63;4496792;31;31702;-60
2023/04/27 01:58:32;;;;;;;1.85;1.25;;;;;;;10.47;39.37;99740.22;4485918;31;37768;-60
2023/04/27 02:00:59;;;;;;;1.85;1.12;;;;;;;10.61;39.05;99742.72;4495566;31;34823;-60
2023/04/27 02:03:28;;;;;;;1.95;1.50;;;;;;;9.99;40.33;99740.16;4488398;31;35247;-62
2023/04/27 02:05:56;;;;;;;1.37;0.95;;;;;;;9.98;40.53;99738.41;4491557;31;33546;-61
2023/04/27 02:08:23;;;;;;;1.25;1.00;;;;;;;10.24;39.96;99740.06;4482093;31;34155;-61
2023/04/27 02:10:51;;;;;;;0.98;0.88;;;;;;;10.31;39.80;99737.81;4496995;31;34168;-62
2023/04/27 02:13:18;;;;;;;0.93;0.93;;;;;;;9.78;41.01;99748.72;4494119;31;33604;-62
2023/04/27 02:15:46;;;;;;;1.42;1.08;;;;;;;9.85;40.63;99746.47;4493630;31;34829;-60
2023/04/27 02:18:14;;;;;;;0.88;0.88;;;;;;;9.81;40.85;99747.66;4496047;31;33371;-60
2023/04/27 02:20:42;;;;;;;2.05;1.85;;;;;;;9.84;40.47;99751.94;4497252;31;32659;-60
2023/04/27 02:23:10;;;;;;;0.85;0.82;;;;;;;9.79;40.79;99757.59;4495669;31;34022;-60
2023/04/27 02:25:41;;;;;;;1.85;1.08;;;;;;;9.46;41.97;99759.00;4485190;31;33896;-60
2023/04/27 02:28:09;;;;;;;13.38;1.48;;;;;;;9.36;42.08;99755.28;4490765;31;33778;-60
2023/04/27 02:30:37;;;;;;;1.42;1.20;;;;;;;9.28;42.35;99763.84;4485361;31;32071;-62
2023/04/27 02:33:05;;;;;;;2.55;1.85;;;;;;;8.80;43.28;99771.56;4485745;31;34213;-60
2023/04/27 02:35:32;;;;;;;1.12;0.85;;;;;;;9.38;41.93;99763.22;4493503;31;33140;-61
2023/04/27 02:38:00;;;;;;;2.05;1.17;;;;;;;9.52;41.85;99766.59;4491468;31;33497;-60
2023/04/27 02:40:28;;;;;;;3.10;1.85;;;;;;;9.20;42.86;99771.50;4491964;31;33563;-61
2023/04/27 02:42:56;;;;;;;1.95;0.88;;;;;;;9.44;42.14;99777.00;4494643;31;34281;-60
2023/04/27 02:45:24;;;;;;;1.60;1.17;;;;;;;9.63;41.65;99776.56;4495201;31;33739;-60
2023/04/27 02:47:51;;;;;;;1.20;1.02;;;;;;;9.04;42.72;99779.72;4490018;31;33897;-60
2023/04/27 02:50:19;;;;;;;1.23;0.90;;;;;;;9.28;42.50;99768.34;4494427;31;35254;-61
2023/04/27 02:52:46;;;;;;;2.62;2.17;;;;;;;9.47;41.88;99776.78;4494491;31;33734;-60
2023/04/27 02:55:14;;;;;;;5.28;1.50;;;;;;;9.46;41.88;99774.19;4492677;31;34604;-59
2023/04/27 02:57:42;;;;;;;2.05;1.85;;;;;;;9.05;42.83;99780.56;4490415;31;34818;-60
2023/04/27 03:00:10;;;;;;;2.10;1.55;;;;;;;9.36;42.28;99783.81;4491044;31;33908;-60
2023/04/27 03:02:38;;;;;;;2.65;1.58;;;;;;;9.33;42.56;99782.22;4494228;31;33096;-60
2023/04/27 03:05:06;;;;;;;2.33;1.33;;;;;;;9.29;43.66;99786.91;4490882;31;33612;-60
2023/04/27 03:07:33;;;;;;;1.95;1.52;;;;;;;9.30;42.80;99785.94;4492277;31;34664;-61
2023/04/27 03:10:03;;;;;;;1.75;1.50;;;;;;;9.43;42.09;99791.28;4486137;31;35098;-60
2023/04/27 03:12:31;;;;;;;3.97;2.22;;;;;;;9.39;42.30;99780.94;4497414;31;34152;-60
2023/04/27 03:14:59;;;;;;;2.30;1.27;;;;;;;9.18;42.67;99785.91;4490652;31;32025;-60
2023/04/27 03:17:27;;;;;;;1.27;1.15;;;;;;;9.35;42.34;99793.66;4490522;31;32670;-60
2023/04/27 03:19:55;;;;;;;2.83;1.40;;;;;;;9.44;42.18;99792.16;4485126;31;33963;-60
2023/04/27 03:22:23;;;;;;;1.55;1.20;;;;;;;9.07;42.91;99790.19;4486524;31;33096;-60
2023/04/27 03:24:50;;;;;;;1.05;1.00;;;;;;;9.06;43.37;99792.97;4491008;31;33581;-60
2023/04/27 03:27:18;;;;;;;3.85;1.55;;;;;;;9.09;43.04;99801.63;4492809;31;34725;-60
2023/04/27 03:29:46;;;;;;;2.15;1.87;;;;;;;9.18;42.94;99802.81;4483514;31;34264;-60
2023/04/27 03:32:13;;;;;;;1.55;1.30;;;;;;;9.04;43.12;99797.56;4487847;31;32849;-60
2023/04/27 03:34:41;;;;;;;0.77;0.77;;;;;;;9.21;42.97;99799.06;4487287;31;33691;-60
2023/04/27 03:37:08;;;;;;;2.28;1.58;;;;;;;9.47;42.33;99802.63;4485501;31;34008;-60
2023/04/27 03:39:36;;;;;;;1.05;0.95;;;;;;;9.56;42.04;99805.50;4489439;31;35287;-60
2023/04/27 03:42:04;;;;;;;0.80;0.75;;;;;;;8.85;43.65;99803.25;4494760;31;34875;-61
2023/04/27 03:44:33;;;;;;;2.83;1.73;;;;;;;9.17;43.19;99813.59;4482943;31;34564;-60
2023/04/27 03:47:01;;;;;;;4.97;1.65;;;;;;;9.32;43.20;99810.75;4486395;31;34353;-59
2023/04/27 03:49:28;;;;;;;1.02;0.93;;;;;;;9.44;42.87;99811.72;4486078;31;35042;-59
2023/04/27 03:51:56;;;;;;;1.55;1.33;;;;;;;9.40;42.88;99820.88;4494405;31;35188;-59
2023/04/27 03:54:23;;;;;;;1.77;1.05;;;;;;;9.40;43.60;99817.37;4493837;31;32105;-59
2023/04/27 03:56:51;;;;;;;1.83;1.67;;;;;;;9.51;42.32;99822.84;4493801;31;34732;-59
2023/04/27 03:59:18;;;;;;;7.00;2.25;;;;;;;9.51;42.36;99815.66;4488390;31;35221;-59
2023/04/27 04:01:46;;;;;;;2.62;1.52;;;;;;;9.10;44.09;99815.81;4484996;31;33826;-60
2023/04/27 04:04:14;;;;;;;5.97;2.53;;;;;;;9.37;42.81;99815.75;4490974;31;33586;-61
2023/04/27 04:06:41;;;;;;;2.67;1.95;;;;;;;9.60;42.71;99824.88;4492861;31;33748;-61
2023/04/27 04:09:11;;;;;;;1.30;1.15;;;;;;;9.70;42.33;99822.41;4496393;31;35425;-60
2023/04/27 04:11:39;;;;;;;1.30;1.20;;;;;;;9.60;43.27;99830.22;4489470;31;34620;-61
2023/04/27 04:14:08;;;;;;;1.35;1.25;;;;;;;9.76;42.06;99827.34;4495794;31;34680;-61
2023/04/27 04:16:36;;;;;;;1.67;1.58;;;;;;;9.96;41.81;99826.78;4494324;31;33653;-60
2023/04/27 04:19:03;;;;;;;0.82;0.82;;;;;;;10.09;41.53;99833.94;4487538;31;33849;-60
2023/04/27 04:21:31;;;;;;;1.85;1.20;;;;;;;10.17;41.36;99834.22;4497350;31;33814;-61
2023/04/27 04:23:58;;;;;;;2.95;1.48;;;;;;;10.38;41.02;99829.19;4494262;31;33618;-61
2023/04/27 04:26:26;;;;;;;1.12;1.02;;;;;;;10.58;41.19;99833.09;4489891;31;35146;-60
2023/04/27 04:28:54;;;;;;;2.28;1.52;;;;;;;10.37;42.12;99846.19;4496240;31;35138;-62
2023/04/27 04:31:22;;;;;;;0.93;0.85;;;;;;;10.89;40.75;99837.03;4493737;31;33755;-61
2023/04/27 04:33:50;;;;;;;1.85;1.58;;;;;;;10.98;39.78;99831.00;4492971;31;33673;-60
2023/04/27 04:36:18;;;;;;;1.40;1.30;;;;;;;11.09;40.17;99839.06;4488127;31;33727;-60
2023/04/27 04:38:46;;;;;;;5.12;1.40;;;;;;;11.07;39.45;99842.81;4489458;31;35032;-61
2023/04/27 04:41:15;;;;;;;2.40;1.30;;;;;;;10.98;39.49;99839.03;4496184;31;34028;-61
2023/04/27 04:43:42;;;;;;;1.25;1.10;;;;;;;10.94;40.75;99843.72;4488522;31;33430;-61
2023/04/27 04:46:10;;;;;;;1.02;0.95;;;;;;;11.29;39.50;99845.56;4489542;31;33619;-60
2023/04/27 04:48:38;;;;;;;0.98;0.82;;;;;;;11.33;39.18;99846.19;4495922;31;33874;-61
2023/04/27 04:51:05;;;;;;;1.67;1.00;;;;;;;11.38;39.10;99846.72;4497395;31;34179;-61
2023/04/27 04:53:33;;;;;;;3.72;1.58;;;;;;;11.40;39.05;99848.31;4490778;31;35004;-61
2023/04/27 04:56:08;;;;;;;18.60;2.12;;;;;;;11.41;38.60;99844.66;4497676;31;32820;-61
2023/04/27 04:58:36;;;;;;;1.45;1.20;;;;;;;11.43;38.98;99858.78;4486399;31;34070;-61
2023/04/27 05:01:04;;;;;;;1.40;1.20;;;;;;;10.82;39.94;99850.03;4494469;31;32509;-60
2023/04/27 05:03:32;;;;;;;3.58;1.50;;;;;;;10.86;40.30;99853.31;4493984;31;33404;-59
2023/04/27 05:05:59;;;;;;;1.80;1.35;;;;;;;11.05;40.66;99852.81;4493038;31;32792;-59
2023/04/27 05:08:27;;;;;;;1.52;1.42;;;;;;;11.27;39.58;99850.22;4489397;31;33598;-59
2023/04/27 05:10:55;;;;;;;3.17;1.45;;;;;;;11.39;39.70;99849.25;4493113;31;33897;-60
2023/04/27 05:13:23;;;;;;;1.55;1.27;;;;;;;11.72;39.12;99855.69;4484692;31;34749;-59
2023/04/27 05:15:51;;;;;;;0.90;0.85;;;;;;;11.99;38.76;99857.22;4490502;31;32629;-59
2023/04/27 05:18:19;;;;;;;4.30;1.45;;;;;;;12.14;37.67;99857.84;4488112;31;32985;-59
2023/04/27 05:20:46;;;;;;;0.95;0.95;;;;;;;12.02;37.99;99860.50;4484238;31;33896;-59
2023/04/27 05:23:14;;;;;;;2.47;1.65;;;;;;;12.09;37.77;99871.59;4496429;31;33274;-60
2023/04/27 05:25:42;;;;;;;1.85;1.48;;;;;;;12.45;37.37;99875.00;4490309;31;33828;-60
2023/04/27 05:28:09;;;;;;;2.10;1.35;;;;;;;12.74;36.49;99862.75;4485460;31;33755;-60
2023/04/27 05:30:37;;;;;;;2.47;1.02;;;;;;;13.48;35.32;99878.16;4488709;31;33820;-61
2023/04/27 05:33:05;;;;;;;2.58;1.52;;;;;;;15.25;34.09;99876.91;4490413;31;31941;-61
2023/04/27 05:35:32;;;;;;;1.45;1.10;;;;;;;15.21;33.97;99875.47;4498177;31;35303;-60
2023/04/27 05:38:00;;;;;;;2.42;1.23;;;;;;;15.22;32.73;99869.13;4496902;31;35248;-60
2023/04/27 05:40:28;;;;;;;3.15;1.62;;;;;;;14.98;33.33;99870.34;4494015;31;32990;-62
2023/04/27 05:42:55;;;;;;;3.90;2.03;;;;;;;14.11;33.77;99878.13;4491223;31;32313;-62
2023/04/27 05:45:23;;;;;;;2.67;1.52;;;;;;;14.56;33.71;99880.47;4490815;31;33961;-62
2023/04/27 05:47:50;;;;;;;3.92;1.90;;;;;;;14.71;33.50;99879.09;4494477;31;35143;-60
2023/04/27 05:50:18;;;;;;;10.05;1.95;;;;;;;15.00;33.22;99881.00;4488410;31;34237;-61
2023/04/27 05:52:46;;;;;;;3.30;1.55;;;;;;;15.36;32.86;99882.16;4489440;31;32031;-62
2023/04/27 05:55:13;;;;;;;1.55;1.12;;;;;;;15.39;32.81;99884.56;4494651;31;34061;-61
2023/04/27 05:57:41;;;;;;;3.15;1.50;;;;;;;15.55;33.38;99892.94;4490592;31;35287;-61
2023/04/27 06:00:09;;;;;;;2.15;1.35;;;;;;;15.22;34.33;99901.47;4486972;31;35195;-61
2023/04/27 06:02:38;;;;;;;1.70;1.17;;;;;;;15.38;32.50;99896.38;4496615;31;34531;-61
2023/04/27 06:05:06;;;;;;;5.62;1.60;;;;;;;15.47;31.46;99895.50;4485125;31;35055;-61
2023/04/27 06:07:36;;;;;;;4.03;2.10;;;;;;;15.52;31.54;99897.78;4490653;31;33422;-62
2023/04/27 06:10:04;;;;;;;7.70;2.40;;;;;;;15.15;33.98;99901.16;4492224;31;33950;-63
2023/04/27 06:12:32;;;;;;;1.95;1.40;;;;;;;15.31;34.43;99897.91;4484901;31;34035;-61
2023/04/27 06:15:02;;;;;;;1.87;1.27;;;;;;;15.17;33.17;99896.47;4500180;31;33078;-61
2023/04/27 06:17:29;;;;;;;24.42;2.37;;;;;;;15.52;32.82;99903.16;4496195;31;34606;-62
2023/04/27 06:19:57;;;;;;;3.12;2.05;;;;;;;15.46;33.32;99903.75;4496344;31;35449;-62
2023/04/27 06:22:25;;;;;;;1.45;0.90;;;;;;;14.95;33.47;99908.38;4490876;31;34703;-61
2023/04/27 06:24:52;;;;;;;2.35;1.30;;;;;;;14.90;33.95;99910.63;4489019;31;32966;-61
2023/04/27 06:27:20;;;;;;;5.15;1.70;;;;;;;15.58;31.08;99905.31;4490462;31;35083;-63
2023/04/27 06:29:47;;;;;;;5.15;2.05;;;;;;;15.67;31.78;99909.03;4489653;31;34290;-62
2023/04/27 06:32:15;;;;;;;2.45;1.35;;;;;;;15.48;30.53;99905.31;4489173;31;33359;-61
2023/04/27 06:34:42;;;;;;;2.58;1.70;;;;;;;15.27;30.65;99901.87;4494380;31;33906;-63
2023/04/27 06:37:10;;;;;;;5.85;1.58;;;;;;;14.86;31.10;99893.03;4495648;31;33592;-60
2023/04/27 06:39:37;;;;;;;4.28;1.50;;;;;;;15.27;31.19;99899.19;4484984;31;34238;-60
2023/04/27 06:42:05;;;;;;;3.50;1.87;;;;;;;15.06;30.36;99896.63;4493119;31;34008;-60
2023/04/27 06:44:32;;;;;;;3.60;1.37;;;;;;;15.24;30.06;99894.06;4491442;31;33701;-61
2023/04/27 06:47:00;;;;;;;3.03;1.75;;;;;;;14.51;30.13;99904.25;4489174;31;32844;-60
2023/04/27 06:49:27;;;;;;;1.02;0.75;;;;;;;14.57;29.49;99911.78;4492340;31;35571;-60
2023/04/27 06:51:55;;;;;;;2.65;2.28;;;;;;;15.39;27.93;99914.25;4486620;31;33705;-61
2023/04/27 06:54:22;;;;;;;4.10;1.33;;;;;;;15.30;28.10;99909.69;4485077;31;33850;-61
2023/04/27 06:56:50;;;;;;;3.08;1.48;;;;;;;15.19;29.35;99917.94;4486603;31;33884;-60
2023/04/27 06:59:18;;;;;;;1.90;1.15;;;;;;;15.06;29.53;99919.03;4490483;31;32820;-60
2023/04/27 07:01:45;;;;;;;4.62;1.20;;;;;;;15.48;29.56;99913.41;4487591;31;33828;-61
2023/04/27 07:04:13;;;;;;;0.85;0.73;;;;;;;15.75;28.75;99909.16;4487250;31;33623;-60
2023/04/27 07:06:40;;;;;;;1.10;0.95;;;;;;;15.41;28.68;99917.66;4490174;31;33837;-61
2023/04/27 07:09:08;;;;;;;2.55;1.05;;;;;;;15.91;26.33;99916.66;4491799;31;35166;-61
2023/04/27 07:11:52;;;;;;;5.18;1.08;;;;;;;15.45;27.91;99918.22;4484206;31;34779;-61
2023/04/27 07:14:21;;;;;;;0.98;0.85;;;;;;;15.54;29.02;99918.22;4494283;31;34908;-61
2023/04/27 07:16:48;;;;;;;2.83;0.88;;;;;;;15.93;28.82;99920.06;4493483;31;32909;-61
2023/04/27 07:19:16;;;;;;;1.17;1.00;;;;;;;16.58;27.25;99921.00;4489637;31;34099;-60
2023/04/27 07:21:43;;;;;;;3.35;1.23;;;;;;;16.50;24.22;99919.06;4483412;31;34722;-61
2023/04/27 07:24:11;;;;;;;1.08;0.98;;;;;;;16.66;24.66;99923.81;4491355;31;33832;-60
2023/04/27 07:26:40;;;;;;;2.58;1.40;;;;;;;16.57;24.55;99918.47;4489006;31;35151;-60
2023/04/27 07:29:08;;;;;;;2.03;0.93;;;;;;;16.52;25.38;99921.59;4495055;31;34129;-61
2023/04/27 07:31:54;;;;;;;2.58;1.05;;;;;;;16.25;26.34;99917.00;4484159;31;33519;-61
2023/04/27 07:34:22;;;;;;;1.65;0.82;;;;;;;15.81;26.81;99922.91;4496210;31;33569;-60
2023/04/27 07:36:52;;;;;;;2.95;1.42;;;;;;;16.26;27.33;99933.06;4493689;31;33757;-60
2023/04/27 07:39:21;;;;;;;1.85;1.33;;;;;;;16.76;25.67;99923.81;4495675;31;34001;-60
2023/04/27 07:41:49;;;;;;;1.90;1.05;;;;;;;15.86;27.92;99932.41;4489945;31;33850;-61
2023/04/27 07:44:17;;;;;;;2.28;1.05;;;;;;;16.75;25.83;99925.63;4489499;31;34501;-61
2023/04/27 07:46:47;;;;;;;2.42;1.12;;;;;;;16.24;25.55;99917.97;4495360;31;33911;-61
2023/04/27 07:49:15;;;;;;;2.55;1.50;;;;;;;15.70;28.57;99925.78;4495220;31;35138;-62
2023/04/27 07:51:43;;;;;;;2.35;1.48;;;;;;;15.96;28.52;99927.88;4489210;31;33350;-61
2023/04/27 07:54:11;;;;;;;1.95;1.12;;;;;;;16.06;29.04;99923.31;4487282;31;33898;-61
2023/04/27 07:56:41;;;;;;;13.43;1.25;;;;;;;16.15;26.09;99932.41;4489373;31;34090;-60
2023/04/27 07:59:09;;;;;;;2.75;1.10;;;;;;;16.37;27.34;99923.06;4490089;31;33826;-61
2023/04/27 08:01:37;;;;;;;0.52;0.50;;;;;;;16.50;25.65;99926.28;4490176;31;33557;-60
2023/04/27 08:04:05;;;;;;;9.68;1.25;;;;;;;15.62;27.60;99925.59;4490452;31;33629;-61
2023/04/27 08:06:33;;;;;;;1.75;1.15;;;;;;;15.18;27.82;99930.53;4494050;31;33898;-60
2023/04/27 08:09:03;;;;;;;2.28;1.17;;;;;;;15.30;26.21;99928.56;4493443;31;35252;-60
2023/04/27 08:11:31;;;;;;;0.85;0.73;;;;;;;15.80;25.68;99920.38;4499748;31;34656;-61
2023/04/27 08:13:58;;;;;;;2.03;1.00;;;;;;;15.17;27.50;99928.00;4493054;31;33523;-60
2023/04/27 08:16:26;;;;;;;3.67;1.90;;;;;;;15.17;27.89;99917.22;4491459;31;33762;-61
2023/04/27 08:18:54;;;;;;;1.55;1.00;;;;;;;15.43;26.14;99925.59;4488459;31;35282;-61
2023/04/27 08:21:22;;;;;;;2.05;0.98;;;;;;;15.97;25.77;99926.88;4496582;31;33212;-61
2023/04/27 08:23:49;;;;;;;2.97;1.02;;;;;;;15.74;26.29;99927.19;4490648;31;34952;-61
2023/04/27 08:26:17;;;;;;;2.62;1.52;;;;;;;15.09;28.71;99934.94;4495213;31;34082;-60
2023/04/27 08:28:44;;;;;;;3.35;1.62;;;;;;;15.59;27.22;99934.81;4492757;31;32525;-61
2023/04/27 08:31:12;;;;;;;1.45;0.90;;;;;;;15.39;28.34;99933.13;4496277;31;34443;-61
2023/04/27 08:33:40;;;;;;;4.12;1.67;;;;;;;15.63;27.08;99934.53;4496044;31;33646;-61
2023/04/27 08:36:08;;;;;;;1.90;0.95;;;;;;;15.14;27.45;99929.12;4495087;31;32721;-60
2023/04/27 08:38:35;;;;;;;1.42;0.98;;;;;;;14.63;27.86;99936.34;4495601;31;34068;-61
2023/04/27 08:41:03;;;;;;;1.67;0.82;;;;;;;15.24;27.95;99926.44;4495137;31;33458;-61
2023/04/27 08:43:50;;;;;;;3.72;1.67;;;;;;;15.14;27.11;99932.66;4492483;31;33401;-66
2023/04/27 08:46:20;;;;;;;3.60;0.85;;;;;;;15.53;27.00;99932.69;4486683;31;34437;-61
2023/04/27 08:48:51;;;;;;;3.12;1.65;;;;;;;16.23;25.67;99929.78;4487507;31;35251;-61
2023/04/27 08:51:20;;;;;;;3.10;1.08;;;;;;;16.41;25.22;99933.44;4491894;31;32610;-60
2023/04/27 08:53:57;;;;;;;6.15;1.50;;;;;;;16.48;23.87;99928.28;4489799;31;31912;-61
2023/04/27 08:56:27;;;;;;;5.62;1.30;;;;;;;16.72;26.41;99930.47;4486923;31;34868;-60
2023/04/27 08:58:55;;;;;;;5.68;1.62;;;;;;;16.51;24.80;99926.16;4491437;31;33642;-61
2023/04/27 09:01:24;;;;;;;2.20;1.35;;;;;;;16.77;23.48;99925.50;4494570;31;33531;-62
2023/04/27 09:04:00;;;;;;;2.97;1.60;;;;;;;16.46;23.79;99917.63;4493668;31;34997;-63
2023/04/27 09:06:34;;;;;;;3.20;1.50;;;;;;;16.71;24.35;99912.53;4489655;31;34125;-62
2023/04/27 09:09:02;;;;;;;3.05;1.52;;;;;;;16.62;25.39;99910.75;4489391;31;34318;-61
2023/04/27 09:11:33;;;;;;;7.20;1.98;;;;;;;17.20;24.39;99908.56;4494133;31;34902;-62
2023/04/27 09:14:03;;;;;;;2.83;1.33;;;;;;;17.27;24.59;99905.25;4488761;31;34776;-62
2023/04/27 09:16:31;;;;;;;2.72;1.35;;;;;;;17.38;24.20;99905.88;4494644;31;33747;-61
2023/04/27 09:18:59;;;;;;;2.28;1.33;;;;;;;17.16;23.75;99906.34;4494233;31;33884;-62
2023/04/27 09:21:28;;;;;;;1.90;1.30;;;;;;;17.16;23.73;99899.06;4494826;31;33668;-61
2023/04/27 09:23:56;;;;;;;5.20;1.90;;;;;;;17.19;25.66;99911.44;4495745;31;33898;-62
2023/04/27 09:26:25;;;;;;;3.70;1.33;;;;;;;17.40;24.92;99900.34;4487645;31;35281;-62
2023/04/27 09:28:57;;;;;;;4.43;2.70;;;;;;;17.18;23.30;99905.19;4486436;31;33034;-63
2023/04/27 09:31:32;;;;;;;1.90;1.27;;;;;;;17.88;21.86;99891.81;4493494;31;33393;-62
2023/04/27 09:33:59;;;;;;;2.53;1.52;;;;;;;17.55;24.09;99896.06;4497882;31;33938;-60
2023/04/27 09:36:29;;;;;;;3.83;1.58;;;;;;;17.34;22.98;99890.12;4489010;31;33833;-63
2023/04/27 09:38:58;;;;;;;3.05;1.45;;;;;;;17.89;23.18;99890.78;4493586;31;33992;-62
2023/04/27 09:41:26;;;;;;;6.53;2.28;;;;;;;18.03;21.99;99894.75;4485727;31;32135;-62
2023/04/27 09:43:54;;;;;;;2.85;1.23;;;;;;;17.37;24.98;99897.94;4496489;31;33737;-62
2023/04/27 09:46:25;;;;;;;1.98;1.25;;;;;;;17.27;22.84;99889.91;4484411;31;33320;-63
2023/04/27 09:48:53;;;;;;;2.17;1.08;;;;;;;17.56;23.11;99900.47;4488688;31;35207;-62
2023/04/27 09:51:21;;;;;;;1.40;1.10;;;;;;;17.03;23.40;99886.94;4486144;31;33221;-62
2023/04/27 09:53:49;;;;;;;3.05;0.98;;;;;;;17.31;24.29;99883.16;4489457;31;35064;-62
2023/04/27 09:56:45;;;;;;;3.95;1.55;;;;;;;16.89;23.31;99883.75;4493703;31;34208;-62
2023/04/27 09:59:36;;;;;;;1.40;1.20;;;;;;;17.34;22.85;99882.84;4482292;31;33834;-61
2023/04/27 10:02:04;;;;;;;2.47;1.50;;;;;;;17.80;23.28;99885.47;4491896;31;33464;-61
2023/04/27 10:05:04;;;;;;;5.25;1.42;;;;;;;18.00;23.17;99873.41;4482666;31;33792;-63
2023/04/27 10:07:32;;;;;;;6.97;1.40;;;;;;;17.41;24.78;99878.53;4484914;31;33550;-60
2023/04/27 10:10:01;;;;;;;5.50;1.73;;;;;;;18.10;23.12;99879.56;4483858;31;35136;-61
2023/04/27 10:12:35;;;;;;;5.12;1.73;;;;;;;18.08;22.79;99878.06;4493189;31;33917;-61
2023/04/27 10:15:16;;;;;;;2.22;1.48;;;;;;;18.11;22.24;99866.91;4498532;31;33634;-61
2023/04/27 10:17:48;;;;;;;6.40;2.17;;;;;;;18.56;22.93;99871.19;4499403;31;34057;-60
2023/04/27 10:20:16;;;;;;;2.97;1.08;;;;;;;18.65;24.07;99874.75;4498599;31;33893;-60
2023/04/27 10:22:48;;;;;;;3.95;1.58;;;;;;;18.80;23.07;99868.59;4486186;31;34594;-61
2023/04/27 10:25:24;;;;;;;7.20;2.17;;;;;;;18.60;22.79;99872.56;4496513;31;33145;-62
2023/04/27 10:27:55;;;;;;;;;;;;;;;19.09;22.99;99862.72;4486574;31;34291;-61
2023/04/27 10:30:33;;;;;;;5.07;2.20;;;;;;;19.29;22.45;99871.44;4482683;31;34605;-60
2023/04/27 10:33:06;;;;;;;3.10;1.65;;;;;;;18.74;22.71;99858.38;4489706;31;33783;-61
2023/04/27 10:35:35;;;;;;;5.28;1.55;;;;;;;19.34;23.37;99868.19;4498036;31;33536;-61
2023/04/27 10:38:09;;;;;;;6.90;2.25;;;;;;;17.92;23.71;99876.94;4496920;31;33915;-61
2023/04/27 10:40:37;;;;;;;;;;;;;;;18.84;23.94;99874.53;4485051;32;34022;-61
2023/04/27 10:43:12;;;;;;;3.33;1.37;;;;;;;19.01;21.45;99870.84;4494205;31;33904;-62
2023/04/27 10:45:42;;;;;;;3.53;1.65;;;;;;;18.20;22.36;99865.06;4498007;31;34004;-61
2023/04/27 10:48:13;;;;;;;3.85;1.42;;;;;;;18.80;22.67;99874.00;4495618;31;34147;-61
2023/04/27 10:50:41;;;;;;;2.95;1.60;;;;;;;19.16;21.75;99872.91;4497229;31;33894;-61
2023/04/27 10:53:09;;;;;;;3.15;1.83;;;;;;;18.98;22.79;99863.06;4490205;31;33175;-62
2023/04/27 10:55:36;;;;;;;4.47;1.60;;;;;;;19.30;21.12;99869.56;4495906;31;33456;-61
2023/04/27 10:58:05;;;;;;;3.20;1.90;;;;;;;18.96;22.96;99864.22;4490193;31;34247;-61
2023/04/27 11:00:40;;;;;;;4.93;2.03;;;;;;;19.02;22.68;99871.69;4491039;31;34732;-62
2023/04/27 11:03:17;;;;;;;8.57;2.00;;;;;;;19.34;21.51;99867.34;4494323;31;34370;-62
2023/04/27 11:05:46;;;;;;;4.12;2.60;;;;;;;19.16;22.30;99864.78;4497695;31;33807;-62
2023/04/27 11:08:19;;;;;;;3.72;1.85;;;;;;;19.09;23.61;99861.88;4491411;31;34245;-72
2023/04/27 11:10:48;;;;;;;4.65;2.12;;;;;;;19.29;22.95;99860.56;4499143;31;34228;-71
2023/04/27 11:13:23;;;;;;;4.72;1.95;;;;;;;18.79;22.51;99866.91;4495517;31;33616;-73
2023/04/27 11:15:53;;;;;;;4.62;1.87;;;;;;;18.46;23.27;99860.47;4497938;31;32314;-68
2023/04/27 11:18:24;;;;;;;3.08;1.70;;;;;;;18.47;23.33;99864.87;4486736;31;34590;-61
2023/04/27 11:20:53;;;;;;;5.93;2.00;;;;;;;19.39;22.80;99867.66;4488655;31;33207;-61
2023/04/27 11:23:35;;;;;;;4.93;2.28;;;;;;;19.46;22.64;99853.28;4485980;31;34765;-62
2023/04/27 11:26:11;;;;;;;2.95;1.70;;;;;;;18.72;22.58;99862.28;4493221;31;33517;-63
2023/04/27 11:28:40;;;;;;;3.50;1.67;;;;;;;18.74;23.02;99861.09;4490808;31;34912;-63
2023/04/27 11:31:07;;;;;;;2.53;1.45;;;;;;;18.77;23.03;99859.94;4486773;31;34071;-61
2023/04/27 11:33:35;;;;;;;5.70;1.98;;;;;;;18.90;23.42;99859.47;4495144;31;33315;-62
2023/04/27 11:36:03;;;;;;;5.03;1.62;;;;;;;18.69;23.36;99866.16;4489057;31;33765;-62
2023/04/27 11:38:34;;;;;;;5.75;2.12;;;;;;;18.98;21.89;99859.50;4486412;31;33726;-63
2023/04/27 11:41:04;;;;;;;4.93;1.48;;;;;;;19.05;22.58;99866.78;4496438;31;33816;-61